Terminal Aerodrome Forecast
Issued by NWS

Home | Current Version | Previous Version | Text Only | Print | Product List | Glossary On
Versions: 1 2 3 4 5 6 7 8 9 10 11 12 13 14 15 16 17 18 19 20 21 22 23
000
FTUS43 KDVN 041840 AAB
TAFBRL
TAF AMD
KBRL 041840Z 0419/0518 14004KT 1/2SM SN FG OVC004
     FM042000 16006KT 3SM -SN BR OVC003
     FM050000 23007KT 5SM BR OVC003
     FM050400 VRB03KT 1/2SM FG OVC002
     FM051600 VRB03KT 3SM BR SCT003=

USA.gov is the U.S. government's official web portal to all federal, state and local government web resources and services.